Latest Weather Observations for Parkes Airport

IDN60801

Issued at 3:23 am EDT Friday 29 January 2021 (issued every 10 minutes, with the page automatically refreshed every 10 minutes)

About weather observations | Map of weather stations | Latest weather observations for NSW | Other Formats
Station Details ID: 065068 Name: PARKES AIRPORT AWS Lat: -33.13 Lon: 148.24 Height: 323.3 m
Data from the previous 72 hours. | See also: Recent months at Parkes Airport
Date/Time
EDT
Temp
°C
App
Temp
°C
Dew
Point
°C
Rel
Hum
%
Delta-T
°C
Wind Press
QNH
hPa
Press
MSL
hPa
Rain since
9am
mm
Dir  Spd
km/h
Gust
km/h
Spd
kts
Gust
kts
29/03:00am 17.3 15.7 15.1 87 1.3 SE 17 22 9 12 1015.3 1013.4 6.0
29/02:30am 17.4 16.6 15.0 86 1.4 SSE 13 17 7 9 1015.7 1013.8 -
29/02:00am 17.2 15.6 15.0 87 1.3 ESE 17 22 9 12 1015.7 1013.8 -
29/01:30am 16.8 14.7 15.3 91 0.9 ESE 20 26 11 14 1016.2 1014.3 -
29/01:15am 16.9 16.6 15.4 91 0.9 SE 11 19 6 10 1016.8 1014.9 -
29/01:00am 16.4 14.5 15.1 92 0.8 ESE 19 28 10 15 1016.5 1014.6 -
29/12:58am 16.4 14.5 15.1 92 0.8 ESE 19 28 10 15 1016.4 1014.5 -
29/12:30am 17.0 15.0 15.0 88 1.2 ESE 19 26 10 14 1016.9 1015.1 -
29/12:00am 17.1 14.8 14.7 86 1.4 ESE 20 28 11 15 1017.0 1015.2 -
 
Date/Time
EDT
Temp
°C
App
Temp
°C
Dew
Point
°C
Rel
Hum
%
Delta-T
°C
Wind Press
QNH
hPa
Press
MSL
hPa
Rain since
9am
mm
Dir  Spd
km/h
Gust
km/h
Spd
kts
Gust
kts
28/11:30pm 17.4 15.1 14.7 84 1.6 ESE 20 32 11 17 1016.8 1014.9 -
28/11:00pm 17.9 16.6 14.8 82 1.8 E 15 24 8 13 1016.5 1014.6 -
28/10:30pm 18.1 17.3 15.0 82 1.8 ENE 13 22 7 12 1016.3 1014.4 -
28/10:00pm 18.4 15.5 15.1 81 2.0 E 24 37 13 20 1016.0 1014.1 -
28/09:30pm 18.7 16.8 15.8 83 1.7 E 20 32 11 17 1015.7 1013.8 -
28/09:00pm 19.1 16.4 15.6 80 2.1 E 24 33 13 18 1015.3 1013.4 -
28/08:30pm 19.4 15.7 16.1 81 2.0 E 30 43 16 23 1014.9 1013.0 -
28/08:00pm 19.3 14.7 16.0 81 2.0 E 35 46 19 25 1014.8 1012.9 -
28/07:43pm 20.2 15.3 15.4 74 2.9 E 35 44 19 24 1015.0 1013.1 -
28/07:30pm 22.5 18.3 14.6 61 4.7 E 30 39 16 21 1015.1 1013.2 -
28/07:00pm 23.7 20.3 14.7 57 5.4 SE 26 37 14 20 1014.9 1013.0 -
28/06:30pm 24.2 20.4 14.6 55 5.8 ESE 28 37 15 20 1014.4 1012.5 -
28/06:00pm 24.9 20.4 15.0 54 6.0 ESE 32 41 17 22 1013.9 1012.0 -
28/05:30pm 26.2 22.3 15.6 52 6.5 ESE 30 43 16 23 1014.1 1012.1 -
28/05:00pm 26.9 23.4 14.6 46 7.5 E 26 41 14 22 1014.1 1012.1 -
28/04:30pm 27.9 24.3 15.2 46 7.8 ENE 28 35 15 19 1014.3 1012.4 -
28/04:00pm 28.3 25.2 15.6 46 7.9 ENE 26 37 14 20 1014.2 1012.3 -
28/03:30pm 27.5 23.5 15.2 47 7.6 ENE 30 43 16 23 1014.5 1012.6 -
28/03:00pm 28.1 23.1 15.1 45 8.0 NE 35 46 19 25 1014.5 1012.6 0.0
28/02:43pm 28.6 24.0 15.2 44 8.3 ENE 33 48 18 26 1014.4 1012.5 -
28/02:30pm 29.6 24.6 16.1 44 8.5 ENE 37 54 20 29 1014.6 1012.7 -
28/02:00pm 28.2 24.0 16.1 47 7.6 ENE 33 44 18 24 1014.9 1013.0 -
28/01:30pm 28.4 22.0 15.3 45 8.1 ENE 43 57 23 31 1014.8 1012.9 -
28/01:00pm 29.2 25.1 16.4 46 8.1 ENE 33 52 18 28 1015.4 1013.5 -
28/12:40pm 28.0 23.7 16.0 48 7.5 ENE 33 52 18 28 1015.4 1013.5 -
28/12:30pm 27.4 23.0 15.7 48 7.3 ENE 33 46 18 25 1015.5 1013.6 -
28/12:02pm 26.5 23.1 15.8 51 6.6 ENE 28 46 15 25 1015.7 1013.8 -
28/12:00pm 26.3 23.0 16.0 53 6.4 ENE 28 44 15 24 1015.7 1013.8 -
28/11:30am 26.8 23.1 16.1 52 6.7 ENE 30 39 16 21 1015.7 1013.8 -
28/11:00am 25.2 20.9 15.5 55 5.9 ENE 32 44 17 24 1015.8 1013.9 0.0
28/10:30am 23.8 20.1 16.1 62 4.7 ENE 30 43 16 23 1015.7 1013.8 0.0
28/10:00am 23.9 21.6 16.7 64 4.5 ENE 24 30 13 16 1015.9 1014.0 0.0
28/09:30am 22.9 20.5 15.5 63 4.5 ENE 22 33 12 18 1015.7 1013.8 0.0
28/09:00am 23.3 21.3 15.4 61 4.8 ENE 20 28 11 15 1015.7 1013.8 0.0
28/08:30am 22.6 20.3 14.7 61 4.7 ENE 20 30 11 16 1015.9 1014.0 0.0
28/08:00am 22.2 20.0 14.3 61 4.7 E 19 30 10 16 1015.5 1013.6 0.0
28/07:30am 22.0 18.9 14.4 62 4.5 ENE 24 37 13 20 1015.4 1013.5 0.0
28/07:00am 22.2 19.9 14.1 60 4.8 E 19 26 10 14 1014.6 1012.7 0.0
28/06:30am 22.0 20.9 14.4 62 4.5 ENE 13 22 7 12 1013.7 1011.8 0.0
28/06:00am 21.8 19.0 14.2 62 4.5 E 22 35 12 19 1013.2 1011.3 0.0
28/05:30am 21.6 18.8 14.3 63 4.3 ENE 22 33 12 18 1013.0 1011.1 0.0
28/05:00am 21.7 19.5 14.4 63 4.3 E 19 26 10 14 1012.8 1010.9 0.0
28/04:30am 21.5 19.3 14.4 64 4.2 ENE 19 30 10 16 1012.4 1010.5 0.0
28/04:00am 21.4 20.0 14.6 65 4.0 ENE 15 24 8 13 1012.4 1010.5 0.0
28/03:30am 21.5 17.6 14.4 64 4.2 ENE 28 39 15 21 1012.2 1010.3 0.0
28/03:00am 21.7 18.6 14.4 63 4.3 ENE 24 35 13 19 1012.5 1010.6 0.0
28/02:30am 21.5 18.7 14.4 64 4.2 ENE 22 33 12 18 1012.5 1010.6 0.0
28/02:00am 21.8 17.5 14.4 63 4.4 ENE 30 37 16 20 1012.5 1010.6 0.0
28/01:30am 21.9 17.6 14.5 63 4.4 ENE 30 41 16 22 1012.4 1010.5 0.0
28/01:00am 21.9 19.2 14.5 63 4.4 ENE 22 33 12 18 1012.9 1011.0 0.0
28/12:30am 22.2 18.3 14.3 61 4.7 ENE 28 39 15 21 1012.9 1011.0 0.0
28/12:00am 22.3 18.0 14.4 61 4.7 E 30 39 16 21 1012.7 1010.8 0.0
 
Date/Time
EDT
Temp
°C
App
Temp
°C
Dew
Point
°C
Rel
Hum
%
Delta-T
°C
Wind Press
QNH
hPa
Press
MSL
hPa
Rain since
9am
mm
Dir  Spd
km/h
Gust
km/h
Spd
kts
Gust
kts
27/11:30pm 22.6 18.7 14.4 60 4.9 ENE 28 43 15 23 1012.7 1010.8 0.0
27/11:00pm 22.9 19.9 14.7 60 4.9 E 24 37 13 20 1012.9 1011.0 0.0
27/10:30pm 23.7 21.1 14.9 57 5.3 E 22 32 12 17 1012.7 1010.8 0.0
27/10:00pm 24.7 22.0 15.6 57 5.6 E 24 35 13 19 1012.1 1010.2 0.0
27/09:30pm 25.9 22.3 16.2 55 6.0 E 30 37 16 20 1011.6 1009.7 0.0
27/09:00pm 26.9 23.0 16.5 53 6.5 E 32 43 17 23 1011.2 1009.2 0.0
27/08:30pm 27.7 24.4 16.9 51 6.8 E 30 43 16 23 1010.6 1008.7 0.0
27/08:00pm 29.0 26.2 17.2 49 7.5 E 28 41 15 22 1009.9 1008.0 0.0
27/07:30pm 30.2 26.8 17.6 46 8.1 ESE 32 44 17 24 1009.4 1007.5 0.0
27/07:00pm 31.5 27.9 18.5 46 8.5 ESE 35 44 19 24 1008.7 1006.8 0.0
27/06:30pm 32.7 29.1 18.5 43 9.3 SE 35 46 19 25 1008.1 1006.1 0.0
27/06:20pm 33.3 31.2 17.1 38 10.5 SSE 24 46 13 25 1008.0 1006.0 0.0
27/06:00pm 34.5 33.6 15.9 33 11.9 SSW 15 22 8 12 1007.7 1005.7 0.0
27/05:30pm 34.5 33.8 14.4 30 12.5 SW 11 19 6 10 1007.4 1005.5 0.0
27/05:00pm 35.3 35.6 15.1 30 12.8 SW 7 20 4 11 1007.7 1005.7 0.0
27/04:30pm 35.2 35.1 15.0 30 12.7 SW 9 15 5 8 1007.8 1005.8 0.0
27/04:00pm 35.3 34.7 16.6 33 12.1 W 15 24 8 13 1008.1 1006.1 0.0
27/03:30pm 34.9 35.1 16.7 34 11.7 W 11 19 6 10 1008.2 1006.2 0.0
27/03:00pm 33.7 34.5 17.4 37 10.6 SSW 9 17 5 9 1008.5 1006.5 0.0
27/02:30pm 33.0 33.9 18.4 42 9.6 SSW 11 19 6 10 1008.7 1006.8 0.0
27/02:00pm 32.5 32.8 17.9 41 9.5 S 13 24 7 13 1009.0 1007.1 0.0
27/01:30pm 32.6 32.5 18.8 44 9.1 W 17 24 9 13 1009.1 1007.2 0.0
27/01:00pm 32.0 32.4 18.2 43 9.0 WNW 13 19 7 10 1009.3 1007.4 0.0
27/12:30pm 31.3 32.3 18.6 46 8.3 WSW 11 19 6 10 1009.5 1007.6 0.0
27/12:00pm 31.0 32.8 18.7 48 8.1 ENE 7 15 4 8 1009.5 1007.6 0.0
27/11:30am 30.1 32.0 18.5 49 7.6 SE 6 13 3 7 1009.5 1007.6 0.0
27/11:00am 28.6 30.8 18.4 54 6.6 SE 4 11 2 6 1009.7 1007.8 0.0
27/10:30am 27.0 28.1 18.8 60 5.3 SSW 11 17 6 9 1009.7 1007.8 0.0
27/10:00am 26.2 27.7 18.9 64 4.7 SSW 9 15 5 8 1009.5 1007.6 0.0
27/09:30am 25.1 26.0 19.2 70 3.8 S 13 15 7 8 1009.4 1007.5 0.0
27/09:00am 24.4 25.4 19.5 74 3.2 SSW 13 17 7 9 1009.3 1007.4 0.0
27/08:30am 23.4 24.6 19.8 80 2.3 SW 13 19 7 10 1009.1 1007.2 -
27/08:00am 22.5 24.0 19.7 84 1.8 SW 11 17 6 9 1008.7 1006.8 -
27/07:30am 21.8 23.6 19.5 87 1.5 SW 9 11 5 6 1008.3 1006.3 -
27/07:00am 21.6 22.9 19.3 87 1.5 SW 11 13 6 7 1007.8 1005.8 -
27/06:30am 21.5 23.3 19.6 89 1.2 SSW 9 11 5 6 1007.3 1005.4 -
27/06:00am 21.2 23.0 19.5 90 1.1 SSW 9 9 5 5 1006.9 1005.0 -
27/05:30am 20.5 23.6 18.6 89 1.2 CALM 0 0 0 0 1006.5 1004.6 -
27/05:00am 20.4 23.5 18.7 90 1.1 CALM 0 0 0 0 1006.3 1004.4 -
27/04:30am 19.3 20.4 18.1 93 0.8 NE 9 11 5 6 1006.1 1004.2 -
27/04:00am 19.2 20.3 17.2 88 1.2 ENE 7 9 4 5 1005.9 1004.0 -
27/03:30am 20.2 23.1 18.1 88 1.3 CALM 0 0 0 0 1005.7 1003.7 -
27/03:00am 20.7 23.0 18.6 88 1.3 ENE 4 9 2 5 1005.6 1003.6 -
27/02:30am 21.4 24.4 18.4 83 1.9 CALM 0 0 0 0 1005.8 1003.8 -
27/02:00am 22.0 25.3 19.0 83 1.9 CALM 0 0 0 0 1005.8 1003.8 -
27/01:30am 22.2 24.8 19.2 83 1.9 SSW 4 6 2 3 1006.2 1004.3 -
27/01:00am 22.2 24.3 19.4 84 1.8 SSW 7 11 4 6 1006.3 1004.4 -
27/12:30am 22.7 26.1 19.3 81 2.2 CALM 0 0 0 0 1006.2 1004.3 -
27/12:00am 22.6 24.7 19.4 82 2.1 SW 7 9 4 5 1006.2 1004.3 -
 
Date/Time
EDT
Temp
°C
App
Temp
°C
Dew
Point
°C
Rel
Hum
%
Delta-T
°C
Wind Press
QNH
hPa
Press
MSL
hPa
Rain since
9am
mm
Dir  Spd
km/h
Gust
km/h
Spd
kts
Gust
kts
26/11:50pm 22.6 24.2 19.2 81 2.2 SW 9 9 5 5 1006.2 1004.3 -
26/11:32pm 23.0 24.7 19.4 80 2.3 SW 9 13 5 7 1006.2 1004.3 -
26/11:30pm 23.0 24.7 19.4 80 2.3 SW 9 13 5 7 1006.2 1004.3 -
26/11:00pm 23.0 - 19.2 79 2.5 - - - - - 1006.1 1004.2 -
26/10:30pm 24.0 24.0 18.9 73 3.3 SW 17 22 9 12 1005.8 1003.8 0.0
26/10:00pm 24.8 27.1 17.8 65 4.5 S 2 6 1 3 1005.4 1003.4 0.0
26/09:48pm 24.8 27.1 17.8 65 4.4 ESE 2 6 1 3 1005.2 1003.2 0.0
26/09:30pm 24.8 25.9 18.0 66 4.3 E 9 11 5 6 1005.0 1003.0 0.0
26/09:27pm 24.9 25.7 18.1 66 4.3 E 11 11 6 6 1004.9 1002.9 0.0
26/09:00pm 25.2 27.8 17.4 62 4.9 CALM 0 0 0 0 1004.8 1002.8 0.0
26/08:30pm 26.0 28.8 17.9 61 5.2 CALM 0 0 0 0 1004.6 1002.6 0.0
26/08:00pm 26.2 26.8 17.6 59 5.5 ENE 11 13 6 7 1003.9 1002.0 0.0
26/07:30pm 27.2 27.4 17.7 56 6.1 ENE 13 17 7 9 1003.4 1001.5 0.0
26/07:00pm 29.1 30.0 17.6 50 7.4 ESE 9 15 5 8 1003.1 1001.2 0.0
26/06:30pm 27.4 27.7 18.7 59 5.6 E 15 19 8 10 1003.1 1001.2 0.0
26/06:00pm 25.8 25.6 17.7 61 5.2 E 15 19 8 10 1003.4 1001.5 0.0
26/05:30pm 25.0 25.4 18.2 66 4.3 SE 13 17 7 9 1003.8 1001.9 0.0
26/05:00pm 24.2 24.0 18.6 71 3.6 SE 17 20 9 11 1003.9 1002.0 0.0
26/04:30pm 23.5 24.4 19.2 77 2.8 S 13 17 7 9 1004.0 1002.1 0.0
26/04:00pm 24.0 21.7 18.4 71 3.6 WSW 28 41 15 22 1004.8 1002.8 0.0
26/03:30pm 27.5 21.5 16.5 51 6.9 W 43 54 23 29 1003.9 1002.0 0.0
26/03:10pm 32.3 27.9 13.0 31 11.7 W 28 50 15 27 1003.4 1001.5 0.0
26/03:00pm 32.2 28.7 13.4 32 11.5 W 24 35 13 19 1003.4 1001.5 0.0
26/02:30pm 32.6 27.8 12.8 30 12.0 WNW 30 43 16 23 1003.4 1001.5 0.0
26/02:00pm 32.7 28.7 12.9 30 12.0 NW 26 35 14 19 1003.4 1001.5 0.0
26/01:30pm 32.5 28.8 12.7 30 12.0 NW 24 33 13 18 1003.5 1001.6 0.0
26/01:00pm 31.9 26.9 12.2 30 11.8 NNW 30 39 16 21 1003.8 1001.9 0.0
26/12:30pm 32.4 26.6 12.6 30 11.9 NNW 35 46 19 25 1004.0 1002.1 0.0
26/12:00pm 31.9 26.9 12.2 30 11.8 NNW 30 44 16 24 1004.0 1002.1 0.0
26/11:30am 33.2 27.5 11.7 27 12.8 N 33 46 18 25 1004.3 1002.3 0.0
26/11:00am 34.6 30.0 13.4 28 13.1 NNW 30 39 16 21 1004.5 1002.5 0.0
26/10:30am 33.1 29.2 13.2 30 12.1 NNW 26 39 14 21 1004.8 1002.8 0.0
26/10:00am 32.0 27.0 12.3 30 11.8 NNW 30 41 16 22 1005.2 1003.2 0.0
26/09:34am 31.3 26.7 12.2 31 11.4 NW 28 46 15 25 1005.3 1003.3 0.0
26/09:30am 31.0 25.9 11.9 31 11.3 NW 30 46 16 25 1005.4 1003.4 0.0
26/09:28am 31.3 26.5 11.7 30 11.6 NW 28 46 15 25 1005.3 1003.3 0.0
26/09:00am 29.4 24.7 11.9 34 10.3 NNW 28 43 15 23 1005.3 1003.3 0.0
26/08:30am 28.8 24.5 12.2 35 9.8 N 26 35 14 19 1005.0 1003.0 0.0
26/08:00am 27.0 23.5 12.3 40 8.7 N 22 32 12 17 1005.0 1003.0 0.0
26/07:30am 25.7 22.1 11.8 42 8.0 N 22 30 12 16 1004.9 1002.9 0.0
26/07:00am 25.0 22.0 11.9 44 7.6 N 19 26 10 14 1005.0 1003.0 0.0
26/06:30am 24.6 21.4 11.9 45 7.3 N 20 28 11 15 1004.7 1002.7 0.0
26/06:00am 24.6 20.9 11.5 44 7.5 N 22 32 12 17 1004.3 1002.3 0.0
26/05:30am 24.1 21.4 11.8 46 7.1 N 17 24 9 13 1003.8 1001.9 0.0
26/05:00am 23.9 21.3 11.9 47 6.9 NNE 17 20 9 11 1003.6 1001.7 0.0
26/04:30am 24.1 21.4 11.8 46 7.1 NNE 17 22 9 12 1003.5 1001.6 0.0
26/04:00am 24.5 21.4 11.5 44 7.5 N 19 22 10 12 1003.5 1001.6 0.0
26/03:30am 24.5 21.6 11.1 43 7.6 NNE 17 22 9 12 1003.6 1001.7 0.0

Other formats

Comma delimited format used in spreadsheet applications
http://www.bom.gov.au/fwo/IDN60801/IDN60801.95717.axf

JavaScript Object Notation format (JSON) in row-major order
http://www.bom.gov.au/fwo/IDN60801/IDN60801.95717.json

Data quality

Most of these data are generated automatically and are frequently updated. Quality checks on data are not normally performed. It is possible for incorrect values to appear. Refer to information at About Latest Weather Observations and please check the disclaimer before using these data.